createdAt,value
2022-10-20T00:00:56.304Z,99265.72
2022-10-20T00:03:59.300Z,99272.78
2022-10-20T00:07:01.864Z,99261.97
2022-10-20T00:10:05.274Z,99264.59
2022-10-20T00:13:07.993Z,99259.28
2022-10-20T00:16:11.199Z,99260.22
2022-10-20T00:19:13.848Z,99266.50
2022-10-20T00:22:16.876Z,99273.66
2022-10-20T00:25:19.293Z,99278.13
2022-10-20T00:28:22.036Z,99279.00
2022-10-20T00:31:25.719Z,99283.47
2022-10-20T00:34:28.559Z,99284.31
2022-10-20T00:37:31.165Z,99284.31
2022-10-20T00:40:35.094Z,99284.19
2022-10-20T00:43:49.472Z,99285.91
2022-10-20T00:46:52.701Z,99287.84
2022-10-20T00:49:55.994Z,99283.34
2022-10-20T00:52:59.784Z,99278.88
2022-10-20T00:56:02.622Z,99281.38
2022-10-20T00:59:05.594Z,99286.81
2022-10-20T01:02:09.077Z,99283.97
2022-10-20T01:05:13.229Z,99279.63
2022-10-20T01:08:15.829Z,99273.44
2022-10-20T01:11:21.730Z,99277.84
2022-10-20T01:14:39.004Z,99288.38
2022-10-20T01:17:57.423Z,99281.34
2022-10-20T01:21:08.101Z,99284.00
2022-10-20T01:24:17.027Z,99277.13
2022-10-20T01:27:34.661Z,99290.72
2022-10-20T01:30:46.046Z,99288.12
2022-10-20T01:34:10.418Z,99286.41
2022-10-20T01:37:49.077Z,99292.63
2022-10-20T01:41:02.882Z,99285.69
2022-10-20T01:44:09.409Z,99294.59
2022-10-20T01:47:12.248Z,99295.31
2022-10-20T01:50:17.075Z,99294.13
2022-10-20T01:53:20.303Z,99286.69
2022-10-20T01:56:47.270Z,99286.41
2022-10-20T02:00:00.725Z,99292.37
2022-10-20T02:03:04.557Z,99294.00
2022-10-20T02:06:19.539Z,99293.88
2022-10-20T02:09:48.048Z,99288.56
2022-10-20T02:12:55.473Z,99294.03
2022-10-20T02:16:00.885Z,99280.84
2022-10-20T02:19:06.002Z,99286.34
2022-10-20T02:22:11.218Z,99292.13
2022-10-20T02:25:14.314Z,99286.19
2022-10-20T02:28:17.711Z,99308.72
2022-10-20T02:31:20.983Z,99310.59
2022-10-20T02:34:26.271Z,99308.84
2022-10-20T02:37:29.163Z,99304.47
2022-10-20T02:40:33.354Z,99301.09
2022-10-20T02:43:36.427Z,99302.84
2022-10-20T02:46:38.963Z,99297.69
2022-10-20T02:49:41.856Z,99318.16
2022-10-20T02:52:44.486Z,99321.00
2022-10-20T02:55:47.484Z,99324.63
2022-10-20T02:58:50.369Z,99332.00
2022-10-20T03:01:53.439Z,99334.00
2022-10-20T03:04:56.003Z,99335.91
2022-10-20T03:07:58.824Z,99341.16
2022-10-20T03:11:02.981Z,99278.44
2022-10-20T03:14:05.843Z,99342.94
2022-10-20T03:17:08.865Z,99339.47
2022-10-20T03:20:12.110Z,99334.25
2022-10-20T03:23:17.816Z,99341.44
2022-10-20T03:26:22.909Z,99344.16
2022-10-20T03:29:25.365Z,99349.56
2022-10-20T03:32:28.274Z,99354.94
2022-10-20T03:35:30.816Z,99353.09
2022-10-20T03:38:33.729Z,99348.50
2022-10-20T03:41:37.373Z,99340.44
2022-10-20T03:44:40.595Z,99359.88
2022-10-20T03:47:43.042Z,99361.63
2022-10-20T03:50:49.243Z,99351.03
2022-10-20T03:53:51.718Z,99354.63
2022-10-20T03:56:54.520Z,99356.19
2022-10-20T03:59:59.351Z,99352.53
2022-10-20T04:03:02.229Z,99347.06
2022-10-20T04:06:05.224Z,99355.22
2022-10-20T04:09:07.911Z,99347.88
2022-10-20T04:12:10.784Z,99342.53
2022-10-20T04:15:13.717Z,99352.38
2022-10-20T04:18:16.615Z,99344.34
2022-10-20T04:21:19.294Z,99351.50
2022-10-20T04:24:22.156Z,99346.22
2022-10-20T04:27:24.801Z,99352.44
2022-10-20T04:30:33.355Z,99355.03
2022-10-20T04:33:36.137Z,99352.44
2022-10-20T04:36:38.921Z,99357.75
2022-10-20T04:39:41.472Z,99351.56
2022-10-20T04:42:44.370Z,99352.41
2022-10-20T04:45:46.875Z,99351.50
2022-10-20T04:48:49.655Z,99357.72
2022-10-20T04:51:52.225Z,99352.28
2022-10-20T04:54:55.031Z,99339.97
2022-10-20T04:57:57.678Z,99350.56
2022-10-20T05:01:03.518Z,99348.84
2022-10-20T05:04:06.138Z,99351.59
2022-10-20T05:07:08.988Z,99360.19
2022-10-20T05:10:11.934Z,99354.00
2022-10-20T05:13:14.716Z,99351.22
2022-10-20T05:16:17.723Z,99363.00
2022-10-20T05:19:20.626Z,99366.25
2022-10-20T05:22:23.155Z,99377.13
2022-10-20T05:25:36.200Z,99372.00
2022-10-20T05:28:40.397Z,99369.34
2022-10-20T05:31:44.063Z,99375.66
2022-10-20T05:34:46.758Z,99382.91
2022-10-20T05:37:49.611Z,99385.44
2022-10-20T05:41:16.997Z,99398.81
2022-10-20T05:44:19.848Z,99401.47
2022-10-20T05:47:22.472Z,99414.31
2022-10-20T05:50:25.732Z,99411.63
2022-10-20T05:53:28.311Z,99425.03
2022-10-20T05:56:31.891Z,99418.88
2022-10-20T05:59:34.500Z,99434.97
2022-10-20T06:02:38.022Z,99441.94
2022-10-20T06:05:41.220Z,99443.63
2022-10-20T06:08:43.869Z,99445.34
2022-10-20T06:11:48.172Z,99442.56
2022-10-20T06:14:50.700Z,99447.91
2022-10-20T06:17:53.612Z,99443.44
2022-10-20T06:21:05.753Z,99449.66
2022-10-20T06:24:10.024Z,99447.81
2022-10-20T06:27:12.628Z,99450.28
2022-10-20T06:30:15.803Z,99453.84
2022-10-20T06:33:18.352Z,99464.38
2022-10-20T06:36:22.472Z,99469.59
2022-10-20T06:39:25.511Z,99475.53
2022-10-20T06:42:28.741Z,99472.81
2022-10-20T06:45:31.274Z,99484.19
2022-10-20T06:48:35.170Z,99486.53
2022-10-20T06:51:40.824Z,99497.03
2022-10-20T06:54:43.820Z,99497.81
2022-10-20T06:57:46.349Z,99499.59
2022-10-20T07:00:58.641Z,99494.94
2022-10-20T07:04:04.027Z,99501.16
2022-10-20T07:07:06.914Z,99507.28
2022-10-20T07:10:09.641Z,99507.69
2022-10-20T07:13:12.611Z,99496.91
2022-10-20T07:16:17.906Z,99507.22
2022-10-20T07:19:21.187Z,99504.41
2022-10-20T07:22:23.791Z,99505.87
2022-10-20T07:25:26.659Z,99502.75
2022-10-20T07:28:29.712Z,99509.53
2022-10-20T07:31:36.319Z,99519.41
2022-10-20T07:34:38.825Z,99521.81
2022-10-20T07:37:41.757Z,99512.16
2022-10-20T07:40:44.422Z,99508.25
2022-10-20T07:43:47.419Z,99484.19
2022-10-20T07:46:50.273Z,99512.84
2022-10-20T07:49:53.266Z,99521.66
2022-10-20T07:52:55.832Z,99524.44
2022-10-20T07:55:58.701Z,99516.44
2022-10-20T07:59:01.664Z,99510.00
2022-10-20T08:02:04.856Z,99520.06
2022-10-20T08:05:08.888Z,99524.06
2022-10-20T08:08:11.719Z,99524.09
2022-10-20T08:11:15.540Z,99522.97
2022-10-20T08:14:18.269Z,99517.34
2022-10-20T08:17:21.103Z,99510.19
2022-10-20T08:20:28.738Z,99523.22
2022-10-20T08:23:31.714Z,99525.72
2022-10-20T08:26:34.852Z,99520.84
2022-10-20T08:29:38.101Z,99521.47
2022-10-20T08:32:40.763Z,99529.03
2022-10-20T08:35:43.687Z,99521.47
2022-10-20T08:38:46.286Z,99537.06
2022-10-20T08:45:18.838Z,99529.69
2022-10-20T08:48:25.042Z,99532.06
2022-10-20T08:51:32.619Z,99537.28
2022-10-20T08:54:35.587Z,99533.97
2022-10-20T08:57:38.561Z,99536.75
2022-10-20T09:00:43.996Z,99518.78
2022-10-20T09:03:51.418Z,99534.00
2022-10-20T09:06:59.495Z,99535.69
2022-10-20T09:10:26.877Z,99543.56
2022-10-20T09:13:31.849Z,99546.19
2022-10-20T09:16:58.557Z,99543.59
2022-10-20T09:20:01.993Z,99551.47
2022-10-20T09:23:16.679Z,99528.75
2022-10-20T09:26:54.120Z,99547.00
2022-10-20T09:29:57.521Z,99549.34
2022-10-20T09:33:02.214Z,99544.06
2022-10-20T09:36:12.902Z,99550.03
2022-10-20T09:39:24.904Z,99552.19
2022-10-20T09:42:34.430Z,99554.25
2022-10-20T09:45:39.756Z,99535.87
2022-10-20T09:48:47.915Z,99537.03
2022-10-20T09:55:03.949Z,99542.00
2022-10-20T09:58:08.108Z,99554.19
2022-10-20T10:01:15.858Z,99540.41
2022-10-20T10:04:31.032Z,99533.41
2022-10-20T10:07:33.578Z,99543.25
2022-10-20T10:10:37.906Z,99546.38
2022-10-20T10:13:44.529Z,99542.03
2022-10-20T10:16:47.385Z,99534.06
2022-10-20T10:19:52.556Z,99537.41
2022-10-20T10:23:27.285Z,99532.59
2022-10-20T10:26:45.554Z,99527.44
2022-10-20T10:29:50.921Z,99518.44
2022-10-20T10:32:53.792Z,99512.59
2022-10-20T10:35:57.403Z,99524.25
2022-10-20T10:39:00.419Z,99520.19
2022-10-20T10:42:03.429Z,99509.84
2022-10-20T10:45:23.682Z,99515.75
2022-10-20T10:48:47.930Z,99512.69
2022-10-20T10:51:57.523Z,99502.44
2022-10-20T10:55:06.612Z,99504.00
2022-10-20T10:58:16.049Z,99500.47
2022-10-20T11:01:45.120Z,99498.16
2022-10-20T11:05:13.975Z,99483.50
2022-10-20T11:08:28.879Z,99486.03
2022-10-20T11:11:50.471Z,99480.25
2022-10-20T11:15:14.346Z,99475.16
2022-10-20T11:18:46.223Z,99473.38
2022-10-20T11:22:02.018Z,99467.25
2022-10-20T11:25:22.693Z,99456.06
2022-10-20T11:28:46.776Z,99453.84
2022-10-20T11:32:15.880Z,99437.59
2022-10-20T11:35:25.034Z,99439.38
2022-10-20T11:38:36.236Z,99443.16
2022-10-20T11:41:49.749Z,99443.53
2022-10-20T11:44:54.394Z,99431.75
2022-10-20T11:48:12.573Z,99431.81
2022-10-20T11:51:19.747Z,99413.72
2022-10-20T11:54:48.884Z,99412.38
2022-10-20T11:58:12.814Z,99419.38
2022-10-20T12:01:18.888Z,99412.41
2022-10-20T12:04:40.903Z,99418.34
2022-10-20T12:08:30.288Z,99392.75
2022-10-20T12:11:51.888Z,99415.31
2022-10-20T12:15:00.349Z,99416.00
2022-10-20T12:18:34.726Z,99408.63
2022-10-20T12:21:57.885Z,99413.16
2022-10-20T12:25:00.626Z,99413.97
2022-10-20T12:28:22.584Z,99410.19
2022-10-20T12:31:26.120Z,99410.00
2022-10-20T12:34:40.132Z,99404.19
2022-10-20T12:37:44.975Z,99400.09
2022-10-20T12:40:59.116Z,99388.81
2022-10-20T12:44:04.672Z,99392.31
2022-10-20T12:47:08.335Z,99386.34
2022-10-20T12:50:35.177Z,99376.34
2022-10-20T12:53:38.267Z,99386.38
2022-10-20T12:56:42.109Z,99382.81
2022-10-20T12:59:44.820Z,99385.91
2022-10-20T13:02:58.809Z,99372.19
2022-10-20T13:06:02.113Z,99376.81
2022-10-20T13:09:07.709Z,99374.41
2022-10-20T13:12:29.033Z,99374.81
2022-10-20T13:15:35.161Z,99369.37
2022-10-20T13:18:42.763Z,99369.66
2022-10-20T13:21:49.427Z,99371.88
2022-10-20T13:24:55.959Z,99361.09
2022-10-20T13:28:18.258Z,99370.72
2022-10-20T13:31:21.056Z,99356.62
2022-10-20T13:34:33.942Z,99354.91
2022-10-20T13:38:02.967Z,99348.97
2022-10-20T13:41:40.904Z,99361.69
2022-10-20T13:44:52.920Z,99358.72
2022-10-20T13:48:16.831Z,99358.59
2022-10-20T13:51:24.743Z,99361.13
2022-10-20T13:54:31.827Z,99355.41
2022-10-20T13:57:35.653Z,99353.19
2022-10-20T14:00:39.695Z,99353.19
2022-10-20T14:03:44.591Z,99348.94
2022-10-20T14:06:47.269Z,99361.84
2022-10-20T14:09:57.257Z,99351.16
2022-10-20T14:13:01.188Z,99357.97
2022-10-20T14:16:05.939Z,99348.47
2022-10-20T14:19:12.855Z,99346.53
2022-10-20T14:22:15.562Z,99343.00
2022-10-20T14:25:18.204Z,99336.84
2022-10-20T14:28:21.312Z,99343.72
2022-10-20T14:31:24.966Z,99341.03
2022-10-20T14:34:29.451Z,99338.81
2022-10-20T14:37:41.092Z,99338.28
2022-10-20T14:40:55.566Z,99336.75
2022-10-20T14:44:05.098Z,99336.91
2022-10-20T14:47:10.906Z,99330.75
2022-10-20T14:50:44.389Z,99334.88
2022-10-20T14:53:47.385Z,99333.09
2022-10-20T14:56:52.360Z,99330.37
2022-10-20T15:00:03.932Z,99329.75
2022-10-20T15:03:09.192Z,99324.53
2022-10-20T15:06:17.671Z,99322.37
2022-10-20T15:09:30.489Z,99323.25
2022-10-20T15:12:39.392Z,99313.56
2022-10-20T15:15:42.327Z,99315.13
2022-10-20T15:18:46.474Z,99310.88
2022-10-20T15:21:50.544Z,99307.97
2022-10-20T15:24:53.490Z,99309.81
2022-10-20T15:27:56.525Z,99297.31
2022-10-20T15:31:04.315Z,99304.22
2022-10-20T15:34:09.871Z,99301.75
2022-10-20T15:37:12.783Z,99292.59
2022-10-20T15:40:21.051Z,99288.50
2022-10-20T15:43:24.024Z,99287.06
2022-10-20T15:46:26.744Z,99287.50
2022-10-20T15:49:29.601Z,99299.72
2022-10-20T15:52:32.470Z,99288.38
2022-10-20T15:55:37.491Z,99292.25
2022-10-20T15:58:40.144Z,99294.38
2022-10-20T16:01:43.058Z,99294.63
2022-10-20T16:04:45.964Z,99279.41
2022-10-20T16:07:48.521Z,99285.75
2022-10-20T16:10:57.827Z,99295.47
2022-10-20T16:14:20.204Z,99293.56
2022-10-20T16:17:42.936Z,99300.63
2022-10-20T16:21:06.312Z,99301.50
2022-10-20T16:24:28.997Z,99298.97
2022-10-20T16:27:51.354Z,99305.38
2022-10-20T16:31:16.083Z,99304.12
2022-10-20T16:34:18.597Z,99302.28
2022-10-20T16:37:21.930Z,99304.12
2022-10-20T16:40:24.548Z,99303.47
2022-10-20T16:43:28.048Z,99312.53
2022-10-20T16:46:30.628Z,99306.47
2022-10-20T16:49:34.327Z,99311.00
2022-10-20T16:52:37.117Z,99312.22
2022-10-20T16:55:40.088Z,99315.69
2022-10-20T16:58:42.653Z,99315.75
2022-10-20T17:01:45.851Z,99320.22
2022-10-20T17:04:49.779Z,99323.28
2022-10-20T17:07:52.668Z,99329.59
2022-10-20T17:10:57.376Z,99332.06
2022-10-20T17:14:00.591Z,99312.34
2022-10-20T17:17:03.380Z,99324.19
2022-10-20T17:20:06.965Z,99326.31
2022-10-20T17:23:09.626Z,99331.56
2022-10-20T17:26:18.424Z,99325.94
2022-10-20T17:29:25.151Z,99327.34
2022-10-20T17:32:29.007Z,99329.84
2022-10-20T17:35:31.938Z,99322.47
2022-10-20T17:38:35.514Z,99328.69
2022-10-20T17:41:38.349Z,99305.56
2022-10-20T17:44:41.342Z,99329.53
2022-10-20T17:47:44.148Z,99333.22
2022-10-20T17:50:47.346Z,99329.38
2022-10-20T17:53:51.729Z,99333.91
2022-10-20T17:56:54.911Z,99335.91
2022-10-20T18:00:00.448Z,99336.81
2022-10-20T18:03:08.412Z,99335.91
2022-10-20T18:06:17.448Z,99335.84
2022-10-20T18:09:20.290Z,99345.63
2022-10-20T18:12:23.309Z,99346.47
2022-10-20T18:15:26.154Z,99326.81
2022-10-20T18:18:29.176Z,99338.78
2022-10-20T18:21:32.739Z,99234.59
2022-10-20T18:24:37.208Z,99330.72
2022-10-20T18:27:40.048Z,99341.31
2022-10-20T18:30:43.609Z,99332.28
2022-10-20T18:33:47.256Z,99322.37
2022-10-20T18:36:51.289Z,99322.00
2022-10-20T18:39:54.052Z,99321.41
2022-10-20T18:42:56.902Z,99320.84
2022-10-20T18:46:01.203Z,99321.88
2022-10-20T18:49:06.741Z,99330.13
2022-10-20T18:52:09.576Z,99320.38
2022-10-20T18:55:12.874Z,99324.00
2022-10-20T18:58:15.797Z,99322.13
2022-10-20T19:01:21.269Z,99325.72
2022-10-20T19:04:24.216Z,99323.03
2022-10-20T19:07:27.070Z,99319.34
2022-10-20T19:10:29.960Z,99307.94
2022-10-20T19:13:35.954Z,99317.91
2022-10-20T19:16:39.935Z,99304.56
2022-10-20T19:19:44.645Z,99319.59
2022-10-20T19:22:47.448Z,99327.75
2022-10-20T19:26:13.629Z,99328.78
2022-10-20T19:29:18.214Z,99319.91
2022-10-20T19:32:22.689Z,99318.34
2022-10-20T19:35:25.752Z,99316.63
2022-10-20T19:38:28.963Z,99318.59
2022-10-20T19:41:34.502Z,99308.06
2022-10-20T19:44:37.530Z,99318.97
2022-10-20T19:47:40.485Z,99319.94
2022-10-20T19:50:43.550Z,99311.94
2022-10-20T19:53:47.704Z,99306.94
2022-10-20T19:56:50.973Z,99316.69
2022-10-20T19:59:54.890Z,99323.78
2022-10-20T20:02:57.851Z,99316.97
2022-10-20T20:06:03.243Z,99308.91
2022-10-20T20:09:08.217Z,99309.78
2022-10-20T20:12:11.239Z,99314.34
2022-10-20T20:15:14.097Z,99316.94
2022-10-20T20:18:17.680Z,99298.38
2022-10-20T20:21:21.424Z,99312.59
2022-10-20T20:24:24.518Z,99317.09
2022-10-20T20:27:27.407Z,99304.91
2022-10-20T20:30:30.489Z,99313.75
2022-10-20T20:33:34.029Z,99319.19
2022-10-20T20:36:37.078Z,99319.31
2022-10-20T20:39:39.776Z,99317.84
2022-10-20T20:42:42.706Z,99317.00
2022-10-20T20:45:45.351Z,99320.75
2022-10-20T20:48:48.369Z,99319.91
2022-10-20T20:51:51.016Z,99321.69
2022-10-20T20:54:54.051Z,99318.09
2022-10-20T20:57:56.549Z,99315.47
2022-10-20T21:01:02.457Z,99320.13
2022-10-20T21:04:10.191Z,99314.91
2022-10-20T21:07:13.151Z,99307.03
2022-10-20T21:10:15.833Z,99308.94
2022-10-20T21:13:18.654Z,99296.59
2022-10-20T21:16:35.673Z,99311.56
2022-10-20T21:19:38.476Z,99312.59
2022-10-20T21:22:41.036Z,99311.09
2022-10-20T21:25:46.217Z,99303.19
2022-10-20T21:28:49.516Z,99306.81
2022-10-20T21:31:52.584Z,99296.16
2022-10-20T21:34:57.911Z,99298.84
2022-10-20T21:38:00.881Z,99298.84
2022-10-20T21:41:15.503Z,99298.00
2022-10-20T21:44:18.427Z,99302.50
2022-10-20T21:47:20.994Z,99301.69
2022-10-20T21:50:23.976Z,99300.78
2022-10-20T21:53:26.425Z,99304.34
2022-10-20T21:56:29.773Z,99292.87
2022-10-20T21:59:32.336Z,99302.44
2022-10-20T22:02:35.651Z,99300.75
2022-10-20T22:05:38.620Z,99290.94
2022-10-20T22:08:43.980Z,99299.81
2022-10-20T22:11:50.905Z,99299.22
2022-10-20T22:14:53.438Z,99294.19
2022-10-20T22:17:56.410Z,99298.88
2022-10-20T22:21:09.817Z,99292.81
2022-10-20T22:24:16.329Z,99300.03
2022-10-20T22:27:31.340Z,99291.87
2022-10-20T22:30:41.691Z,99288.31
2022-10-20T22:33:44.293Z,99293.66
2022-10-20T22:36:47.284Z,99275.09
2022-10-20T22:39:50.043Z,99297.19
2022-10-20T22:42:52.905Z,99302.66
2022-10-20T22:45:55.382Z,99312.44
2022-10-20T22:52:01.690Z,99311.69
2022-10-20T22:55:06.923Z,99319.00
2022-10-20T22:58:09.459Z,99300.31
2022-10-20T23:01:18.752Z,99302.22
2022-10-20T23:04:21.423Z,99299.37
2022-10-20T23:07:24.527Z,99305.53
2022-10-20T23:10:27.454Z,99299.97
2022-10-20T23:13:30.304Z,99301.56
2022-10-20T23:16:32.816Z,99308.81
2022-10-20T23:19:35.687Z,99297.41
2022-10-20T23:22:38.212Z,99289.59
2022-10-20T23:25:42.309Z,99295.28
2022-10-20T23:28:44.899Z,99290.09
2022-10-20T23:31:47.724Z,99286.72
2022-10-20T23:34:50.196Z,99281.47
2022-10-20T23:37:52.980Z,99278.88
2022-10-20T23:40:55.761Z,99278.84
2022-10-20T23:43:58.630Z,99277.06
2022-10-20T23:47:01.183Z,99281.56
2022-10-20T23:50:04.655Z,99280.66
2022-10-20T23:53:07.228Z,99279.81
2022-10-20T23:56:10.043Z,99272.72
2022-10-20T23:59:12.583Z,99279.88
